CDT,Max TemperatureF,Mean TemperatureF,Min TemperatureF,Max Dew PointF,MeanDew PointF,Min DewpointF,Max Humidity, Mean Humidity, Min Humidity, Max Sea Level PressureIn, Mean Sea Level PressureIn, Min Sea Level PressureIn, Max VisibilityMiles, Mean VisibilityMiles, Min VisibilityMiles, Max Wind SpeedMPH, Mean Wind SpeedMPH, Max Gust SpeedMPH,PrecipitationIn, CloudCover, Events, WindDirDegrees
2013-8-1,84,73,62,64,62,57,94,70,40,30.09,30.03,29.92,10,10,6,10,5,17,0.00,1,,248
2013-8-2,82,75,68,66,63,55,94,70,54,30.02,29.93,29.90,10,10,7,14,6,21,0.00,3,,306
2013-8-3,78,71,64,63,56,52,88,61,39,30.19,30.11,30.02,10,10,10,14,5,15,0.00,1,,18
2013-8-4,80,68,55,59,56,54,94,62,42,30.20,30.15,30.07,10,10,8,13,4,20,0.00,1,,123
2013-8-5,82,73,64,70,66,57,94,80,66,30.06,29.93,29.84,10,10,9,15,6,20,0.00,5,,205
2013-8-6,89,78,68,75,69,64,94,79,52,29.91,29.84,29.79,10,8,2,20,4,30,0.39,4,Rain,231
2013-8-7,78,73,68,70,66,61,94,77,57,30.01,29.90,29.80,10,9,4,15,7,21,0.01,1,,347
2013-8-8,78,69,60,64,60,57,94,71,47,30.04,30.01,29.97,10,10,10,9,4,,0.00,2,,34
2013-8-9,80,72,64,66,62,57,94,73,54,30.14,30.05,30.01,10,10,7,12,4,16,0.00,3,,327
2013-8-10,80,68,57,61,57,54,94,64,42,30.22,30.16,30.11,10,10,8,8,2,,0.00,0,,101
2013-8-11,84,73,62,63,60,57,83,63,42,30.14,30.09,30.01,10,9,5,13,7,21,0.00,0,,206
2013-8-12,82,73,64,68,62,54,94,71,42,30.06,30.01,29.99,10,10,7,14,8,21,0.07,3,Rain,341
2013-8-13,77,66,55,59,55,52,94,70,47,30.18,30.11,30.05,10,10,10,10,6,15,0.00,0,,12
2013-8-14,73,64,55,54,49,43,82,59,36,30.24,30.19,30.14,10,10,10,8,3,13,0.00,2,,119
2013-8-15,71,66,60,55,53,50,82,67,46,30.17,30.14,30.11,10,10,10,15,5,22,0.00,5,,170
2013-8-16,77,66,55,55,53,48,94,64,36,30.21,30.18,30.14,10,10,9,12,3,21,0.00,1,,90
2013-8-17,82,68,53,57,54,50,94,61,34,30.23,30.18,30.13,10,10,5,10,2,15,0.00,1,,102
2013-8-18,80,68,57,59,56,54,88,61,39,30.19,30.14,30.08,10,10,10,12,5,14,0.00,1,,162
2013-8-19,84,70,57,63,60,55,94,68,45,30.11,30.07,30.01,10,10,5,14,6,20,0.00,1,,191
2013-8-20,87,76,66,66,63,61,83,64,46,30.05,30.01,29.96,10,10,10,17,8,24,0.00,2,,191
2013-8-21,91,81,71,68,66,64,83,63,43,30.04,30.01,29.97,10,10,9,16,9,23,0.00,0,,208
2013-8-22,82,76,69,70,67,64,94,74,54,30.12,30.07,30.01,10,10,7,12,6,16,0.00,2,Rain,180
2013-8-23,87,78,68,70,68,66,94,77,55,30.14,30.09,30.04,10,8,1,12,6,15,0.00,2,,117
2013-8-24,91,81,71,70,68,66,88,68,43,30.17,30.12,30.07,10,10,6,15,9,22,0.00,1,,159
2013-8-25,93,81,69,70,66,63,83,61,38,30.20,30.14,30.09,10,10,10,16,9,24,0.00,0,,194
2013-8-26,95,84,73,72,68,66,83,60,39,30.13,30.07,29.99,10,10,9,14,9,18,0.00,0,,214
2013-8-27,96,86,75,68,67,63,78,57,34,30.00,29.95,29.89,10,10,10,18,11,28,0.00,0,,227
2013-8-28,95,83,71,72,66,64,78,57,39,30.02,29.98,29.94,10,10,10,12,8,17,0.00,0,,260
2013-8-29,95,82,69,72,67,63,88,62,36,30.06,30.00,29.94,10,10,9,13,4,20,0.00,1,,187
2013-8-30,100,88,75,77,69,63,84,59,29,29.94,29.86,29.79,10,10,10,13,7,14,0.00,0,,244
2013-8-31,89,80,71,75,70,66,94,76,49,29.86,29.82,29.78,10,10,8,10,6,17,0.00,1,,338